createdAt,value
2017-12-14T00:00:31.045Z,4.50
2017-12-14T00:02:59.377Z,4.50
2017-12-14T00:05:27.714Z,4.50
2017-12-14T00:07:56.020Z,4.50
2017-12-14T00:10:31.881Z,4.60
2017-12-14T00:13:00.192Z,4.50
2017-12-14T00:15:28.553Z,4.50
2017-12-14T00:17:56.870Z,4.60
2017-12-14T00:20:25.975Z,4.60
2017-12-14T00:22:54.310Z,4.60
2017-12-14T00:25:22.642Z,4.60
2017-12-14T00:27:50.952Z,4.60
2017-12-14T00:30:19.290Z,4.70
2017-12-14T00:32:48.373Z,4.70
2017-12-14T00:35:17.468Z,4.70
2017-12-14T00:37:46.557Z,4.70
2017-12-14T00:40:14.873Z,4.70
2017-12-14T00:42:43.226Z,4.60
2017-12-14T00:45:12.310Z,4.70
2017-12-14T00:47:40.638Z,4.70
2017-12-14T00:50:08.956Z,4.70
2017-12-14T00:52:38.072Z,4.70
2017-12-14T00:55:07.224Z,4.80
2017-12-14T00:57:35.577Z,4.70
2017-12-14T01:00:03.896Z,4.70
2017-12-14T01:02:32.232Z,4.80
2017-12-14T01:05:00.540Z,4.80
2017-12-14T01:07:28.869Z,4.80
2017-12-14T01:09:57.963Z,4.80
2017-12-14T01:12:26.331Z,4.80
2017-12-14T01:14:54.692Z,4.90
2017-12-14T01:17:23.009Z,4.80
2017-12-14T01:19:52.100Z,4.90
2017-12-14T01:22:21.176Z,5.00
2017-12-14T01:24:49.509Z,4.90
2017-12-14T01:27:17.817Z,5.00
2017-12-14T01:29:46.164Z,5.10
2017-12-14T01:32:14.473Z,5.00
2017-12-14T01:34:42.802Z,5.00
2017-12-14T01:37:11.122Z,5.00
2017-12-14T01:39:39.449Z,5.10
2017-12-14T01:42:08.525Z,5.10
2017-12-14T01:44:36.887Z,5.10
2017-12-14T01:47:05.236Z,5.10
2017-12-14T01:49:33.549Z,5.10
2017-12-14T01:52:01.881Z,5.10
2017-12-14T01:54:30.190Z,5.10
2017-12-14T01:56:58.520Z,5.10
2017-12-14T01:59:27.645Z,5.10
2017-12-14T02:01:55.965Z,5.10
2017-12-14T02:04:24.282Z,5.10
2017-12-14T02:06:52.609Z,5.10
2017-12-14T02:09:20.942Z,5.20
2017-12-14T02:11:49.298Z,5.20
2017-12-14T02:14:18.375Z,5.20
2017-12-14T02:16:46.700Z,5.20
2017-12-14T02:19:15.015Z,5.30
2017-12-14T02:21:43.360Z,5.30
2017-12-14T02:24:11.675Z,5.30
2017-12-14T02:26:40.006Z,5.30
2017-12-14T02:29:08.335Z,5.30
2017-12-14T02:31:36.694Z,5.30
2017-12-14T02:34:05.005Z,5.20
2017-12-14T02:36:33.351Z,5.20
2017-12-14T02:39:01.687Z,5.20
2017-12-14T02:41:30.027Z,5.10
2017-12-14T02:43:58.330Z,5.00
2017-12-14T02:46:26.664Z,4.90
2017-12-14T02:48:54.990Z,4.90
2017-12-14T02:51:24.076Z,4.80
2017-12-14T02:53:52.376Z,4.80
2017-12-14T02:56:21.476Z,4.80
2017-12-14T02:58:49.785Z,4.80
2017-12-14T03:01:18.117Z,4.80
2017-12-14T03:03:47.192Z,4.70
2017-12-14T03:06:15.502Z,4.70
2017-12-14T03:08:43.844Z,4.70
2017-12-14T03:11:12.144Z,4.60
2017-12-14T03:13:40.482Z,4.70
2017-12-14T03:16:08.814Z,4.70
2017-12-14T03:18:37.927Z,4.60
2017-12-14T03:21:06.229Z,4.60
2017-12-14T03:23:34.570Z,4.60
2017-12-14T03:26:03.649Z,4.60
2017-12-14T03:28:31.963Z,4.60
2017-12-14T03:31:00.286Z,4.60
2017-12-14T03:33:28.654Z,4.60
2017-12-14T03:35:57.012Z,4.60
2017-12-14T03:38:25.325Z,4.60
2017-12-14T03:40:53.655Z,4.70
2017-12-14T03:43:21.971Z,4.70
2017-12-14T03:45:50.316Z,4.80
2017-12-14T03:48:18.671Z,4.80
2017-12-14T03:50:47.054Z,4.80
2017-12-14T03:53:15.406Z,4.70
2017-12-14T03:55:43.720Z,4.70
2017-12-14T03:58:12.061Z,4.60
2017-12-14T04:00:40.409Z,4.60
2017-12-14T04:03:08.737Z,4.50
2017-12-14T04:05:37.884Z,4.60
2017-12-14T04:08:06.220Z,4.60
2017-12-14T04:10:34.544Z,4.60
2017-12-14T04:13:02.891Z,4.60
2017-12-14T04:15:31.230Z,4.70
2017-12-14T04:17:59.580Z,4.60
2017-12-14T04:20:27.949Z,4.70
2017-12-14T04:22:56.309Z,4.70
2017-12-14T04:25:24.646Z,4.70
2017-12-14T04:27:52.999Z,4.70
2017-12-14T04:30:21.349Z,4.80
2017-12-14T04:32:49.697Z,4.80
2017-12-14T04:35:18.798Z,4.80
2017-12-14T04:37:47.164Z,4.70
2017-12-14T04:40:16.279Z,4.20
2017-12-14T04:42:44.634Z,4.10
2017-12-14T04:45:12.958Z,4.00
2017-12-14T04:47:41.319Z,4.10
2017-12-14T04:50:10.407Z,4.10
2017-12-14T04:52:39.527Z,4.20
2017-12-14T04:55:07.857Z,4.20
2017-12-14T04:57:36.207Z,4.30
2017-12-14T05:00:04.528Z,4.30
2017-12-14T05:02:32.871Z,4.30
2017-12-14T05:05:01.187Z,4.20
2017-12-14T05:07:30.289Z,4.30
2017-12-14T05:09:58.630Z,4.30
2017-12-14T05:12:27.003Z,4.20
2017-12-14T05:14:55.320Z,4.30
2017-12-14T05:17:23.643Z,4.20
2017-12-14T05:19:51.948Z,4.30
2017-12-14T05:22:20.278Z,4.30
2017-12-14T05:24:48.597Z,4.20
2017-12-14T05:27:16.942Z,4.30
2017-12-14T05:29:45.263Z,4.20
2017-12-14T05:32:14.402Z,4.10
2017-12-14T05:34:43.483Z,4.10
2017-12-14T05:37:12.595Z,4.10
2017-12-14T05:39:40.917Z,4.10
2017-12-14T05:42:09.257Z,4.10
2017-12-14T05:44:37.621Z,4.10
2017-12-14T05:47:05.975Z,4.10
2017-12-14T05:49:34.273Z,4.00
2017-12-14T05:52:03.378Z,4.00
2017-12-14T05:54:32.461Z,3.90
2017-12-14T05:57:02.321Z,3.90
2017-12-14T05:59:30.666Z,3.90
2017-12-14T06:01:59.002Z,4.00
2017-12-14T06:04:27.305Z,4.00
2017-12-14T06:06:55.647Z,4.10
2017-12-14T06:09:23.944Z,4.00
2017-12-14T06:11:52.285Z,4.10
2017-12-14T06:14:20.617Z,4.00
2017-12-14T06:16:48.984Z,4.10
2017-12-14T06:19:17.322Z,4.00
2017-12-14T06:21:45.658Z,3.90
2017-12-14T06:24:13.961Z,3.90
2017-12-14T06:26:43.062Z,3.80
2017-12-14T06:29:11.446Z,3.80
2017-12-14T06:31:39.759Z,3.80
2017-12-14T06:34:08.076Z,3.80
2017-12-14T06:36:37.154Z,3.70
2017-12-14T06:39:05.543Z,3.70
2017-12-14T06:41:33.882Z,3.80
2017-12-14T06:44:25.290Z,3.70
2017-12-14T06:46:53.642Z,3.70
2017-12-14T06:49:22.720Z,3.70
2017-12-14T06:51:51.059Z,3.70
2017-12-14T06:54:19.400Z,3.70
2017-12-14T06:56:48.502Z,3.80
2017-12-14T06:59:16.834Z,3.80
2017-12-14T07:01:45.190Z,3.70
2017-12-14T07:04:13.520Z,3.70
2017-12-14T07:06:42.606Z,3.60
2017-12-14T07:09:10.955Z,3.60
2017-12-14T07:11:39.256Z,3.60
2017-12-14T07:14:07.629Z,3.60
2017-12-14T07:16:35.954Z,3.60
2017-12-14T07:19:04.311Z,3.60
2017-12-14T07:21:33.386Z,3.60
2017-12-14T07:24:01.729Z,3.60
2017-12-14T07:26:30.047Z,3.60
2017-12-14T07:28:58.393Z,3.60
2017-12-14T07:31:26.704Z,3.60
2017-12-14T07:33:55.060Z,3.60
2017-12-14T07:36:23.385Z,3.60
2017-12-14T07:38:52.509Z,3.70
2017-12-14T07:41:20.825Z,3.70
2017-12-14T07:44:01.098Z,3.70
2017-12-14T07:46:30.899Z,3.60
2017-12-14T07:49:11.091Z,3.60
2017-12-14T07:51:40.169Z,3.60
2017-12-14T07:54:08.506Z,3.60
2017-12-14T07:56:36.824Z,3.70
2017-12-14T07:59:05.179Z,3.80
2017-12-14T08:01:33.510Z,3.80
2017-12-14T08:04:01.851Z,3.80
2017-12-14T08:06:30.174Z,3.90
2017-12-14T08:08:58.518Z,4.00
2017-12-14T08:11:27.652Z,3.90
2017-12-14T08:13:56.001Z,3.90
2017-12-14T08:16:24.316Z,4.00
2017-12-14T08:18:52.702Z,4.00
2017-12-14T08:21:21.022Z,4.10
2017-12-14T08:23:49.358Z,4.00
2017-12-14T08:26:17.689Z,4.10
2017-12-14T08:28:46.799Z,4.10
2017-12-14T08:31:15.120Z,4.10
2017-12-14T08:33:43.473Z,4.10
2017-12-14T08:36:11.785Z,4.10
2017-12-14T08:38:40.107Z,4.20
2017-12-14T08:41:09.239Z,4.20
2017-12-14T08:43:37.589Z,4.20
2017-12-14T08:46:07.221Z,4.30
2017-12-14T08:48:35.553Z,4.30
2017-12-14T08:51:03.895Z,4.30
2017-12-14T08:53:32.214Z,4.40
2017-12-14T08:56:00.542Z,4.40
2017-12-14T08:58:28.866Z,4.50
2017-12-14T09:00:57.227Z,4.50
2017-12-14T09:03:25.566Z,4.60
2017-12-14T09:05:53.886Z,4.60
2017-12-14T09:08:22.222Z,4.60
2017-12-14T09:10:50.549Z,4.60
2017-12-14T09:13:18.893Z,4.60
2017-12-14T09:15:47.210Z,4.60
2017-12-14T09:18:15.538Z,4.60
2017-12-14T09:20:43.849Z,4.60
2017-12-14T09:23:12.201Z,4.60
2017-12-14T09:25:40.509Z,4.60
2017-12-14T09:28:08.851Z,4.60
2017-12-14T09:30:37.177Z,4.60
2017-12-14T09:33:05.502Z,4.60
2017-12-14T09:35:34.599Z,4.70
2017-12-14T09:38:03.672Z,4.70
2017-12-14T09:40:32.786Z,4.70
2017-12-14T09:43:01.874Z,4.70
2017-12-14T09:45:30.994Z,4.70
2017-12-14T09:47:59.303Z,4.70
2017-12-14T09:50:27.632Z,4.70
2017-12-14T09:52:56.721Z,4.80
2017-12-14T09:55:25.835Z,4.80
2017-12-14T09:57:54.131Z,4.80
2017-12-14T10:00:22.448Z,4.90
2017-12-14T10:02:50.805Z,4.90
2017-12-14T10:05:19.121Z,4.90
2017-12-14T10:07:47.457Z,4.90
2017-12-14T10:10:15.777Z,4.90
2017-12-14T10:12:44.123Z,5.00
2017-12-14T10:15:12.446Z,5.00
2017-12-14T10:17:41.546Z,5.10
2017-12-14T10:20:10.636Z,5.10
2017-12-14T10:22:38.958Z,5.00
2017-12-14T10:25:07.306Z,5.10
2017-12-14T10:27:36.378Z,5.10
2017-12-14T10:30:04.715Z,5.10
2017-12-14T10:32:33.027Z,5.20
2017-12-14T10:35:01.356Z,5.20
2017-12-14T10:37:29.686Z,5.20
2017-12-14T10:39:58.068Z,5.20
2017-12-14T10:42:26.387Z,5.20
2017-12-14T10:44:54.721Z,5.30
2017-12-14T10:47:23.039Z,5.30
2017-12-14T10:49:52.124Z,5.40
2017-12-14T10:52:21.197Z,5.50
2017-12-14T10:54:49.547Z,5.50
2017-12-14T10:57:17.856Z,5.50
2017-12-14T10:59:46.178Z,5.40
2017-12-14T11:02:14.497Z,5.40
2017-12-14T11:04:42.843Z,5.50
2017-12-14T11:07:11.157Z,5.70
2017-12-14T11:09:39.452Z,5.90
2017-12-14T11:12:07.788Z,6.20
2017-12-14T11:14:36.099Z,6.00
2017-12-14T11:17:04.445Z,5.90
2017-12-14T11:19:32.746Z,6.00
2017-12-14T11:22:01.086Z,6.00
2017-12-14T11:24:31.090Z,5.80
2017-12-14T11:27:00.171Z,5.80
2017-12-14T11:29:29.258Z,5.80
2017-12-14T11:31:58.407Z,5.70
2017-12-14T11:34:26.749Z,5.70
2017-12-14T11:36:55.819Z,5.70
2017-12-14T11:39:24.166Z,5.70
2017-12-14T11:41:52.493Z,5.70
2017-12-14T11:44:21.593Z,5.80
2017-12-14T11:46:50.690Z,5.90
2017-12-14T11:49:19.793Z,5.90
2017-12-14T11:51:48.143Z,5.90
2017-12-14T11:54:16.485Z,5.90
2017-12-14T11:56:44.792Z,5.90
2017-12-14T11:59:13.148Z,5.90
2017-12-14T12:01:41.474Z,5.80
2017-12-14T12:04:09.790Z,5.80
2017-12-14T12:06:38.142Z,5.70
2017-12-14T12:09:07.227Z,5.60
2017-12-14T12:11:35.567Z,5.60
2017-12-14T12:14:03.906Z,5.50
2017-12-14T12:16:33.000Z,5.50
2017-12-14T12:19:02.068Z,5.40
2017-12-14T12:21:30.417Z,5.40
2017-12-14T12:23:58.757Z,5.40
2017-12-14T12:26:27.065Z,5.40
2017-12-14T12:28:55.418Z,5.40
2017-12-14T12:31:23.729Z,5.40
2017-12-14T12:33:52.074Z,5.40
2017-12-14T12:36:21.151Z,5.50
2017-12-14T12:38:50.246Z,5.50
2017-12-14T12:41:19.331Z,5.60
2017-12-14T12:43:47.663Z,5.50
2017-12-14T12:46:15.968Z,5.50
2017-12-14T12:48:44.311Z,5.60
2017-12-14T12:51:12.633Z,5.60
2017-12-14T12:53:40.965Z,5.70
2017-12-14T12:56:09.335Z,5.80
2017-12-14T12:58:37.650Z,5.90
2017-12-14T13:01:05.974Z,6.00
2017-12-14T13:03:34.277Z,5.90
2017-12-14T13:06:02.620Z,5.90
2017-12-14T13:08:30.914Z,5.90
2017-12-14T13:11:00.011Z,5.90
2017-12-14T13:13:29.097Z,6.00
2017-12-14T13:15:58.218Z,6.10
2017-12-14T13:18:27.286Z,6.20
2017-12-14T13:20:55.618Z,6.20
2017-12-14T13:23:23.945Z,6.20
2017-12-14T13:25:52.245Z,6.20
2017-12-14T13:28:20.634Z,6.20
2017-12-14T13:30:49.695Z,6.30
2017-12-14T13:33:18.032Z,6.20
2017-12-14T13:35:46.346Z,6.20
2017-12-14T13:38:15.474Z,6.10
2017-12-14T13:40:43.789Z,6.10
2017-12-14T13:43:12.143Z,6.10
2017-12-14T13:45:40.448Z,6.10
2017-12-14T13:48:08.761Z,6.10
2017-12-14T13:50:37.102Z,6.10
2017-12-14T13:53:05.418Z,6.00
2017-12-14T13:55:33.752Z,6.00
2017-12-14T13:58:02.088Z,6.00
2017-12-14T14:00:31.198Z,6.00
2017-12-14T14:02:59.512Z,6.00
2017-12-14T14:05:27.827Z,6.00
2017-12-14T14:07:56.162Z,6.00
2017-12-14T14:10:24.462Z,6.00
2017-12-14T14:12:52.792Z,5.90
2017-12-14T14:15:21.108Z,5.90
2017-12-14T14:17:49.429Z,5.90
2017-12-14T14:20:17.733Z,5.90
2017-12-14T14:22:46.817Z,5.90
2017-12-14T14:25:15.885Z,5.90
2017-12-14T14:27:44.215Z,5.90
2017-12-14T14:30:12.519Z,5.90
2017-12-14T14:32:40.828Z,5.90
2017-12-14T14:35:09.950Z,5.80
2017-12-14T14:37:38.274Z,5.80
2017-12-14T14:40:06.601Z,5.80
2017-12-14T14:42:35.665Z,5.80
2017-12-14T14:45:03.990Z,5.80
2017-12-14T14:47:32.302Z,5.80
2017-12-14T14:50:00.629Z,5.70
2017-12-14T14:52:29.688Z,5.70
2017-12-14T14:54:57.989Z,5.70
2017-12-14T14:57:26.318Z,5.70
2017-12-14T14:59:54.634Z,5.70
2017-12-14T15:02:22.995Z,5.70
2017-12-14T15:04:51.276Z,5.70
2017-12-14T15:07:19.610Z,5.70
2017-12-14T15:09:48.687Z,5.60
2017-12-14T15:12:17.789Z,5.60
2017-12-14T15:14:46.860Z,5.60
2017-12-14T15:17:15.925Z,5.60
2017-12-14T15:19:44.253Z,5.60
2017-12-14T15:22:13.321Z,5.60
2017-12-14T15:24:41.654Z,5.60
2017-12-14T15:27:09.963Z,5.60
2017-12-14T15:29:38.278Z,5.60
2017-12-14T15:32:06.582Z,5.60
2017-12-14T15:34:34.896Z,5.60
2017-12-14T15:37:03.201Z,5.60
2017-12-14T15:39:31.520Z,5.60
2017-12-14T15:41:59.825Z,5.60
2017-12-14T15:44:28.153Z,5.60
2017-12-14T15:46:57.241Z,5.60
2017-12-14T15:49:25.562Z,5.60
2017-12-14T15:51:53.865Z,5.60
2017-12-14T15:54:22.155Z,5.60
2017-12-14T15:56:50.483Z,5.60
2017-12-14T15:59:18.786Z,5.60
2017-12-14T16:01:47.114Z,5.60
2017-12-14T16:04:15.409Z,5.60
2017-12-14T16:06:43.728Z,5.60
2017-12-14T16:09:12.037Z,5.60
2017-12-14T16:11:40.357Z,5.60
2017-12-14T16:14:08.650Z,5.60
2017-12-14T16:16:36.972Z,5.60
2017-12-14T16:19:05.277Z,5.60
2017-12-14T16:21:34.343Z,5.70
2017-12-14T16:24:02.657Z,5.60
2017-12-14T16:26:30.963Z,5.70
2017-12-14T16:28:59.280Z,5.60
2017-12-14T16:31:27.576Z,5.60
2017-12-14T16:33:56.670Z,5.60
2017-12-14T16:36:25.741Z,5.60
2017-12-14T16:38:54.066Z,5.60
2017-12-14T16:41:22.371Z,5.60
2017-12-14T16:43:50.685Z,5.70
2017-12-14T16:46:18.988Z,5.60
2017-12-14T16:48:48.087Z,5.70
2017-12-14T16:51:17.254Z,5.70
2017-12-14T16:53:45.569Z,5.60
2017-12-14T16:56:13.900Z,5.70
2017-12-14T16:58:42.206Z,5.70
2017-12-14T17:01:10.520Z,5.70
2017-12-14T17:03:38.882Z,5.60
2017-12-14T17:06:07.970Z,5.60
2017-12-14T17:08:37.033Z,5.60
2017-12-14T17:11:05.380Z,5.60
2017-12-14T17:13:33.681Z,5.60
2017-12-14T17:16:02.009Z,5.60
2017-12-14T17:18:30.322Z,5.60
2017-12-14T17:20:58.624Z,5.60
2017-12-14T17:23:26.950Z,5.60
2017-12-14T17:25:55.250Z,5.60
2017-12-14T17:28:23.591Z,5.60
2017-12-14T17:30:52.645Z,5.60
2017-12-14T17:33:20.969Z,5.60
2017-12-14T17:35:50.025Z,5.50
2017-12-14T17:38:18.348Z,5.50
2017-12-14T17:40:46.661Z,5.50
2017-12-14T17:43:15.007Z,5.50
2017-12-14T17:45:44.072Z,5.50
2017-12-14T17:48:12.365Z,5.40
2017-12-14T17:50:41.466Z,5.50
2017-12-14T17:53:10.525Z,5.50
2017-12-14T17:55:38.890Z,5.50
2017-12-14T17:58:07.966Z,5.40
2017-12-14T18:00:36.300Z,5.40
2017-12-14T18:03:04.605Z,5.40
2017-12-14T18:05:32.939Z,5.40
2017-12-14T18:08:01.237Z,5.30
2017-12-14T18:10:29.579Z,5.30
2017-12-14T18:12:57.877Z,5.30
2017-12-14T18:15:26.187Z,5.30
2017-12-14T18:17:55.271Z,5.30
2017-12-14T18:20:23.565Z,5.20
2017-12-14T18:22:52.695Z,5.30
2017-12-14T18:25:20.970Z,5.20
2017-12-14T18:27:49.301Z,5.20
2017-12-14T18:30:18.375Z,5.20
2017-12-14T18:32:46.689Z,5.10
2017-12-14T18:35:14.999Z,5.10
2017-12-14T18:37:43.332Z,5.10
2017-12-14T18:40:11.637Z,5.00
2017-12-14T18:42:39.932Z,4.90
2017-12-14T18:45:08.262Z,4.70
2017-12-14T18:47:37.360Z,4.50
2017-12-14T18:50:06.468Z,4.50
2017-12-14T18:52:36.322Z,4.40
2017-12-14T18:55:15.422Z,4.40
2017-12-14T18:57:44.797Z,4.30
2017-12-14T19:00:14.002Z,4.10
2017-12-14T19:02:42.381Z,4.10
2017-12-14T19:05:11.508Z,4.10
2017-12-14T19:07:39.871Z,4.10
2017-12-14T19:10:09.001Z,4.10
2017-12-14T19:12:37.395Z,4.10
2017-12-14T19:15:05.730Z,4.00
2017-12-14T19:17:34.115Z,3.90
2017-12-14T19:20:03.267Z,3.90
2017-12-14T19:22:31.646Z,3.90
2017-12-14T19:24:59.960Z,3.80
2017-12-14T19:27:28.331Z,3.80
2017-12-14T19:29:56.724Z,3.80
2017-12-14T19:32:25.079Z,3.80
2017-12-14T19:34:53.452Z,3.70
2017-12-14T19:37:21.819Z,3.70
2017-12-14T19:39:50.154Z,3.60
2017-12-14T19:42:18.536Z,3.60
2017-12-14T19:44:46.865Z,3.60
2017-12-14T19:47:15.235Z,3.60
2017-12-14T19:49:43.586Z,3.60
2017-12-14T19:52:11.928Z,3.60
2017-12-14T19:54:40.310Z,3.60
2017-12-14T19:57:09.418Z,3.60
2017-12-14T19:59:37.786Z,3.60
2017-12-14T20:02:06.866Z,3.60
2017-12-14T20:04:35.217Z,3.60
2017-12-14T20:07:03.531Z,3.60
2017-12-14T20:09:32.658Z,3.60
2017-12-14T20:12:01.053Z,3.60
2017-12-14T20:14:31.116Z,3.50
2017-12-14T20:16:59.506Z,3.50
2017-12-14T20:19:28.642Z,3.60
2017-12-14T20:21:58.725Z,3.50
2017-12-14T20:24:27.102Z,3.50
2017-12-14T20:26:56.262Z,3.60
2017-12-14T20:29:24.591Z,3.60
2017-12-14T20:31:53.699Z,3.60
2017-12-14T20:34:22.836Z,3.60
2017-12-14T20:36:51.225Z,3.60
2017-12-14T20:39:19.628Z,3.60
2017-12-14T20:41:48.010Z,3.60
2017-12-14T20:44:16.415Z,3.70
2017-12-14T20:46:47.983Z,3.60
2017-12-14T20:49:16.384Z,3.70
2017-12-14T20:51:44.703Z,3.70
2017-12-14T20:54:13.083Z,3.60
2017-12-14T20:56:41.448Z,3.70
2017-12-14T20:59:09.806Z,3.60
2017-12-14T21:01:38.147Z,3.60
2017-12-14T21:04:07.267Z,3.60
2017-12-14T21:06:35.650Z,3.60
2017-12-14T21:09:04.056Z,3.60
2017-12-14T21:11:32.394Z,3.70
2017-12-14T21:14:00.713Z,3.70
2017-12-14T21:16:29.074Z,3.70
2017-12-14T21:18:57.433Z,3.60
2017-12-14T21:21:25.846Z,3.60
2017-12-14T21:23:54.223Z,3.70
2017-12-14T21:26:22.573Z,3.60
2017-12-14T21:28:50.892Z,3.60
2017-12-14T21:31:19.327Z,3.60
2017-12-14T21:33:47.667Z,3.50
2017-12-14T21:36:16.045Z,3.60
2017-12-14T21:38:44.383Z,3.60
2017-12-14T21:41:12.718Z,3.60
2017-12-14T21:43:41.141Z,3.60
2017-12-14T21:46:09.468Z,3.60
2017-12-14T21:48:37.917Z,3.60
2017-12-14T21:51:06.214Z,3.70
2017-12-14T21:53:34.546Z,3.70
2017-12-14T21:56:02.844Z,3.70
2017-12-14T21:58:31.190Z,3.60
2017-12-14T22:01:00.261Z,3.60
2017-12-14T22:03:28.596Z,3.60
2017-12-14T22:05:57.674Z,3.60
2017-12-14T22:08:25.994Z,3.60
2017-12-14T22:10:54.319Z,3.60
2017-12-14T22:13:24.190Z,3.70
2017-12-14T22:15:52.583Z,3.60
2017-12-14T22:18:22.077Z,3.60
2017-12-14T22:20:51.586Z,3.60
2017-12-14T22:23:19.986Z,3.60
2017-12-14T22:25:49.220Z,3.70
2017-12-14T22:28:17.586Z,3.70
2017-12-14T22:30:45.993Z,3.70
2017-12-14T22:33:15.082Z,3.60
2017-12-14T22:35:43.506Z,3.60
2017-12-14T22:38:11.929Z,3.60
2017-12-14T22:40:40.299Z,3.60
2017-12-14T22:43:08.708Z,3.60
2017-12-14T22:45:37.017Z,3.50
2017-12-14T22:48:05.368Z,3.60
2017-12-14T22:50:33.743Z,3.60
2017-12-14T22:53:02.122Z,3.60
2017-12-14T22:55:30.487Z,3.70
2017-12-14T22:57:58.824Z,3.70
2017-12-14T23:00:27.140Z,3.70
2017-12-14T23:02:55.475Z,3.70
2017-12-14T23:05:23.827Z,3.70
2017-12-14T23:07:52.150Z,3.80
2017-12-14T23:10:20.490Z,3.70
2017-12-14T23:12:48.809Z,3.60
2017-12-14T23:15:17.920Z,3.60
2017-12-14T23:17:46.242Z,3.60
2017-12-14T23:20:14.572Z,3.60
2017-12-14T23:22:43.646Z,3.60
2017-12-14T23:25:12.009Z,3.60
2017-12-14T23:27:40.321Z,3.50
2017-12-14T23:30:09.393Z,3.50
2017-12-14T23:32:37.722Z,3.50
2017-12-14T23:35:06.044Z,3.50
2017-12-14T23:37:34.388Z,3.50
2017-12-14T23:40:03.458Z,3.50
2017-12-14T23:42:32.559Z,3.50
2017-12-14T23:45:05.326Z,3.50
2017-12-14T23:47:34.430Z,3.40
2017-12-14T23:50:03.521Z,3.40
2017-12-14T23:52:31.896Z,3.40
2017-12-14T23:55:00.983Z,3.40
2017-12-14T23:57:29.343Z,3.30
2017-12-14T23:59:57.684Z,3.40
